Time;durP1;ratioP1;P1;durP2;ratioP2;P2;SDS_P1;SDS_P2;PMS_P1;PMS_P2;Temp;Humidity;BMP_temperature;BMP_pressure;BME280_temperature;BME280_humidity;BME280_pressure;Samples;Min_cycle;Max_cycle;Signal;HPM_P1;HPM_P2
2022/04/29 00:00:20;;;;;;;16.02;5.80;;;;;;;6.58;69.12;101913.50;6308869;22;20053;-76
2022/04/29 00:03:07;;;;;;;;;;;;;;;;;;;;;
2022/04/29 00:08:43;;;;;;;;;;;;;;;;;;;;;
2022/04/29 00:11:14;;;;;;;9.55;4.70;;;;;;;6.33;70.02;101886.84;6312863;22;20379;-76
2022/04/29 00:14:02;;;;;;;7.20;4.85;;;;;;;6.22;70.50;101866.53;6291531;22;20050;-77
2022/04/29 00:16:28;;;;;;;8.23;4.80;;;;;;;6.30;70.69;101884.53;6320973;22;19995;-77
2022/04/29 00:19:06;;;;;;;9.07;4.82;;;;;;;6.51;70.64;101923.50;6312445;22;20017;-76
2022/04/29 00:21:34;;;;;;;8.35;5.13;;;;;;;6.39;71.00;101905.03;6263358;22;20068;-76
2022/04/29 00:24:10;;;;;;;;;;;;;;;;;;;;;
2022/04/29 00:26:56;;;;;;;7.97;5.43;;;;;;;6.25;72.17;101893.28;6312642;22;20023;-75
2022/04/29 00:29:21;;;;;;;9.10;5.70;;;;;;;6.07;72.34;101869.34;6285387;22;20007;-75
2022/04/29 00:32:03;;;;;;;18.85;6.13;;;;;;;6.28;72.38;101902.94;6282911;22;20086;-76
2022/04/29 00:34:28;;;;;;;8.07;5.20;;;;;;;6.12;73.16;101871.50;6284921;22;19999;-75
2022/04/29 00:37:10;;;;;;;;;;;;;;;;;;;;;
2022/04/29 00:39:47;;;;;;;;;;;;;;;;;;;;;
2022/04/29 00:42:43;;;;;;;;;;;;;;;;;;;;;
2022/04/29 00:45:32;;;;;;;9.88;5.68;;;;;;;6.20;74.23;101895.75;6299955;22;20041;-75
2022/04/29 00:48:23;;;;;;;14.13;5.97;;;;;;;6.21;73.99;101896.63;6310839;22;20003;-76
2022/04/29 00:50:53;;;;;;;17.10;6.43;;;;;;;5.77;73.99;101828.03;6264238;22;20020;-76
2022/04/29 00:53:24;;;;;;;9.48;5.90;;;;;;;5.81;74.36;101831.19;6254123;22;20014;-75
2022/04/29 00:59:15;;;;;;;;;;;;;;;;;;;;;
2022/04/29 01:02:05;;;;;;;13.65;6.68;;;;;;;5.65;74.90;101819.63;6277898;22;20042;-74
2022/04/29 01:04:59;;;;;;;10.15;5.90;;;;;;;5.76;75.75;101848.88;6279509;22;20638;-73
2022/04/29 01:07:34;;;;;;;13.05;5.40;;;;;;;5.74;75.61;101848.25;6251611;22;20030;-75
2022/04/29 01:10:03;;;;;;;;;;;;;;;5.90;75.95;101878.88;6257243;22;20415;-75
2022/04/29 01:12:34;;;;;;;18.98;6.68;;;;;;;5.72;75.41;101850.34;6254468;22;19965;-74
2022/04/29 01:15:09;;;;;;;7.13;5.72;;;;;;;5.75;76.21;101859.94;6280938;22;20061;-74
2022/04/29 01:17:40;;;;;;;8.80;6.18;;;;;;;5.74;75.86;101867.25;6282350;22;20078;-75
2022/04/29 01:20:18;;;;;;;;;;;;;;;;;;;;;
2022/04/29 01:22:46;;;;;;;10.75;5.47;;;;;;;5.66;76.25;101864.69;6283691;22;20389;-76
2022/04/29 01:25:32;;;;;;;9.68;5.43;;;;;;;5.73;75.93;101873.72;6256447;22;20003;-74
2022/04/29 01:27:59;;;;;;;6.82;4.30;;;;;;;5.44;75.58;101830.53;6277629;22;20090;-73
2022/04/29 01:30:29;;;;;;;9.77;4.90;;;;;;;5.53;76.13;101851.03;6277431;22;20141;-72
2022/04/29 01:33:21;;;;;;;8.40;4.22;;;;;;;5.72;76.24;101877.50;6250152;22;20014;-72
2022/04/29 01:35:47;;;;;;;5.35;3.67;;;;;;;5.63;75.33;101862.38;6217369;22;20014;-72
2022/04/29 01:38:15;;;;;;;5.13;3.30;;;;;;;5.69;75.79;101858.88;6223865;22;19999;-71
2022/04/29 01:40:41;;;;;;;5.88;4.43;;;;;;;5.68;75.24;101859.91;6249119;22;20000;-74
2022/04/29 01:43:06;;;;;;;10.05;6.00;;;;;;;5.69;75.62;101867.00;6250045;22;20362;-73
2022/04/29 01:45:32;;;;;;;10.88;6.53;;;;;;;5.65;76.36;101849.47;6278241;22;20012;-73
2022/04/29 01:47:57;;;;;;;5.60;4.22;;;;;;;5.70;76.30;101857.84;6199946;22;20459;-71
2022/04/29 01:50:23;;;;;;;7.90;5.25;;;;;;;5.66;76.13;101844.88;6249291;22;20026;-72
2022/04/29 01:52:49;;;;;;;6.70;5.38;;;;;;;5.79;75.72;101865.84;6199729;22;20434;-72
2022/04/29 01:55:21;;;;;;;10.30;6.60;;;;;;;5.67;76.46;101841.13;6252722;22;20483;-72
2022/04/29 01:57:52;;;;;;;16.23;6.70;;;;;;;5.85;76.33;101865.03;6278764;22;20058;-75
2022/04/29 02:00:21;;;;;;;8.55;5.15;;;;;;;5.62;75.74;101828.13;6252741;22;20042;-73
2022/04/29 02:02:58;;;;;;;8.00;4.45;;;;;;;5.64;76.14;101828.78;6277866;22;20030;-74
2022/04/29 02:05:32;;;;;;;7.32;4.45;;;;;;;5.51;76.16;101815.13;6205787;22;20066;-75
2022/04/29 02:08:00;;;;;;;9.18;4.90;;;;;;;5.66;75.61;101829.41;6277639;22;20000;-73
2022/04/29 02:10:31;;;;;;;6.78;4.55;;;;;;;5.65;76.19;101826.91;6277798;22;20042;-73
2022/04/29 02:12:57;;;;;;;6.05;3.85;;;;;;;5.73;76.51;101846.56;6251991;22;20012;-74
2022/04/29 02:15:28;;;;;;;5.93;3.78;;;;;;;5.85;75.77;101860.44;6277990;22;20011;-74
2022/04/29 02:18:00;;;;;;;5.80;4.15;;;;;;;5.80;75.81;101851.19;6250593;22;20007;-72
2022/04/29 02:20:34;;;;;;;10.50;6.32;;;;;;;5.69;76.34;101839.88;6280090;22;20121;-73
2022/04/29 02:23:00;;;;;;;9.57;5.22;;;;;;;5.70;76.77;101844.25;6276911;22;20014;-72
2022/04/29 02:25:35;;;;;;;6.28;4.00;;;;;;;5.82;76.65;101860.84;6282107;22;20031;-73
2022/04/29 02:28:11;;;;;;;7.72;4.35;;;;;;;5.44;75.94;101792.53;6230604;22;20464;-75
2022/04/29 02:30:40;;;;;;;8.43;5.88;;;;;;;5.57;75.93;101814.34;6287717;22;20011;-74
2022/04/29 02:33:27;;;;;;;17.15;8.25;;;;;;;5.58;76.02;101816.00;6288278;22;20149;-75
2022/04/29 02:36:04;;;;;;;7.50;5.38;;;;;;;5.91;76.10;101866.94;6286266;22;20067;-75
2022/04/29 02:38:33;;;;;;;11.00;6.30;;;;;;;5.65;76.02;101814.19;6285050;22;20026;-73
2022/04/29 02:40:59;;;;;;;8.73;5.75;;;;;;;5.73;76.28;101819.44;6313190;22;20007;-75
2022/04/29 02:43:34;;;;;;;9.00;5.70;;;;;;;5.73;76.56;101800.44;6311982;22;19999;-74
2022/04/29 02:46:00;;;;;;;9.18;5.43;;;;;;;5.78;76.71;101810.69;6288093;22;20002;-76
2022/04/29 02:51:40;;;;;;;12.20;7.30;;;;;;;5.87;76.83;101831.22;6299262;22;20173;-73
2022/04/29 02:54:27;;;;;;;;;;;;;;;;;;;;;
2022/04/29 02:56:58;;;;;;;10.80;6.32;;;;;;;5.75;76.74;101822.81;6294369;22;20019;-74
2022/04/29 02:59:34;;;;;;;12.02;6.82;;;;;;;5.75;77.12;101821.94;6305784;22;20002;-74
2022/04/29 03:05:31;;;;;;;9.55;6.85;;;;;;;5.48;76.96;101782.97;6283118;22;20014;-76
2022/04/29 03:08:32;;;;;;;13.88;6.82;;;;;;;5.59;77.46;101817.66;6288964;22;20007;-75
2022/04/29 03:11:40;;;;;;;8.50;6.60;;;;;;;5.73;77.28;101840.31;6269462;22;20081;-78
2022/04/29 03:14:35;;;;;;;10.68;5.72;;;;;;;5.60;77.34;101824.78;6287510;22;20003;-79
2022/04/29 03:20:32;;;;;;;9.13;6.38;;;;;;;5.66;77.87;101834.84;6292276;22;20094;-78
2022/04/29 03:23:01;;;;;;;7.68;5.30;;;;;;;5.57;77.28;101825.19;6318549;22;20007;-79
2022/04/29 03:25:36;;;;;;;8.68;6.18;;;;;;;5.53;77.36;101813.03;6291068;22;20010;-80
2022/04/29 03:28:13;;;;;;;10.48;5.65;;;;;;;5.40;77.36;101771.22;6285807;22;20639;-77
2022/04/29 03:31:01;;;;;;;12.20;6.70;;;;;;;5.87;77.53;101843.94;6234555;22;20039;-78
2022/04/29 03:33:29;;;;;;;11.10;6.55;;;;;;;5.84;77.30;101830.78;6260422;22;20430;-80
2022/04/29 03:36:24;;;;;;;13.82;7.20;;;;;;;6.03;76.65;101846.38;6234278;22;20031;-80
2022/04/29 03:39:30;;;;;;;9.05;7.22;;;;;;;6.13;76.87;101839.72;6235556;22;20010;-78
2022/04/29 03:42:18;;;;;;;12.88;8.55;;;;;;;5.99;77.01;101807.09;6255874;22;20060;-77
2022/04/29 03:47:50;;;;;;;14.43;8.45;;;;;;;5.91;76.59;101774.63;6243200;22;20418;-78
2022/04/29 03:50:19;;;;;;;13.07;7.18;;;;;;;5.88;75.89;101773.16;6295165;22;20008;-77
2022/04/29 03:52:59;;;;;;;14.20;7.65;;;;;;;5.91;76.86;101771.91;6268537;22;20078;-77
2022/04/29 03:55:38;;;;;;;11.25;7.40;;;;;;;6.24;76.17;101836.44;6273087;22;20011;-77
2022/04/29 03:58:06;;;;;;;10.13;7.40;;;;;;;5.95;76.20;101784.06;6269872;22;20028;-72
2022/04/29 04:01:31;;;;;;;;;;;;;;;;;;;;;
2022/04/29 04:04:03;;;;;;;14.90;8.38;;;;;;;6.21;76.50;101831.44;6275968;22;20038;-77
2022/04/29 04:09:49;;;;;;;;;;;;;;;;;;;;;
2022/04/29 04:12:27;;;;;;;11.18;6.50;;;;;;;6.07;75.89;101798.75;6275781;22;19996;-76
2022/04/29 04:15:00;;;;;;;12.10;8.02;;;;;;;6.28;75.92;101832.28;6268785;22;20035;-77
2022/04/29 04:17:35;;;;;;;12.25;7.00;;;;;;;6.03;76.70;101792.06;6259654;22;20004;-77
2022/04/29 04:21:09;;;;;;;;;;;;;;;;;;;;;
2022/04/29 04:23:58;;;;;;;;;;;;;;;;;;;;;
2022/04/29 04:30:24;;;;;;;8.10;5.95;;;;;;;5.44;76.65;101771.66;6269131;22;20215;-80
2022/04/29 04:33:02;;;;;;;16.65;8.50;;;;;;;5.63;77.46;101835.25;6286069;22;20014;-79
2022/04/29 04:35:31;;;;;;;12.93;7.07;;;;;;;5.16;78.04;101786.06;6289425;22;20010;-79
2022/04/29 04:38:58;;;;;;;;;;;;;;;;;;;;;
2022/04/29 04:44:58;;;;;;;;;;;;;;;;;;;;;
2022/04/29 04:51:03;;;;;;;;;;;;;;;;;;;;;
2022/04/29 04:53:32;;;;;;;9.38;6.40;;;;;;;4.48;79.47;101780.22;6189306;23;20036;-77
2022/04/29 04:56:21;;;;;;;16.30;7.80;;;;;;;4.83;79.53;101842.69;6189280;23;20009;-78
2022/04/29 04:59:04;;;;;;;9.20;6.40;;;;;;;4.53;79.40;101802.19;6181027;23;20009;-80
2022/04/29 05:01:34;;;;;;;10.18;6.50;;;;;;;4.70;79.71;101835.28;6249859;22;20003;-76
2022/04/29 05:04:03;;;;;;;12.43;7.00;;;;;;;4.62;79.81;101817.28;6288627;22;20073;-78
2022/04/29 05:06:29;;;;;;;9.48;6.35;;;;;;;4.65;79.96;101816.88;6289380;22;20003;-78
2022/04/29 05:09:36;;;;;;;10.68;5.90;;;;;;;4.87;79.89;101858.38;6313278;22;20617;-76
2022/04/29 05:12:15;;;;;;;;;;;;;;;;;;;;;
2022/04/29 05:14:51;;;;;;;;;;;;;;;;;;;;;
2022/04/29 05:17:42;;;;;;;10.43;7.32;;;;;;;4.80;79.72;101813.28;6323553;22;20003;-80
2022/04/29 05:20:23;;;;;;;11.27;6.07;;;;;;;4.97;79.77;101830.97;6301559;22;20007;-79
2022/04/29 05:22:56;;;;;;;11.02;6.93;;;;;;;5.18;79.58;101848.25;6302048;22;19983;-79
2022/04/29 05:25:42;;;;;;;16.50;8.63;;;;;;;5.49;79.38;101885.03;6306081;22;19994;-80
2022/04/29 05:28:23;;;;;;;11.93;7.20;;;;;;;5.61;79.57;101872.59;6271633;22;20023;-78
2022/04/29 05:31:37;;;;;;;;;;;;;;;;;;;;;
2022/04/29 05:34:51;;;;;;;;;;;;;;;;;;;;;
2022/04/29 05:37:36;;;;;;;;;;;;;;;;;;;;;
2022/04/29 05:43:45;;;;;;;14.02;8.70;;;;;;;5.91;78.07;101843.38;6282019;22;20011;-77
2022/04/29 05:46:11;;;;;;;14.70;8.52;;;;;;;6.22;78.78;101874.69;6258804;22;20375;-77
2022/04/29 05:49:00;;;;;;;13.20;8.55;;;;;;;5.96;78.14;101834.63;6259983;22;20018;-79
2022/04/29 05:51:30;;;;;;;14.00;9.13;;;;;;;6.26;77.98;101883.25;6258492;22;20027;-79
2022/04/29 05:57:27;;;;;;;16.83;10.32;;;;;;;6.26;77.91;101873.25;6261053;22;20008;-76
2022/04/29 06:02:52;;;;;;;;;;;;;;;;;;;;;
2022/04/29 06:05:21;;;;;;;15.10;9.13;;;;;;;6.80;77.95;101890.59;6283827;22;20031;-76
2022/04/29 06:08:15;;;;;;;;;;;;;;;;;;;;;
2022/04/29 06:10:59;;;;;;;18.03;9.33;;;;;;;6.73;76.50;101850.81;6279783;22;20051;-74
2022/04/29 06:13:42;;;;;;;16.55;8.90;;;;;;;6.95;76.18;101848.75;6275556;22;20121;-74
2022/04/29 06:16:23;;;;;;;13.32;9.05;;;;;;;7.62;75.86;101919.56;6252247;22;20027;-75
2022/04/29 06:19:11;;;;;;;;;;;;;;;;;;;;;
2022/04/29 06:22:29;;;;;;;;;;;;;;;;;;;;;
2022/04/29 06:24:58;;;;;;;21.55;10.60;;;;;;;8.47;72.56;101888.81;6275315;22;20083;-73
2022/04/29 06:27:24;;;;;;;14.40;8.70;;;;;;;8.69;71.58;101894.81;6274697;22;20003;-72
2022/04/29 06:30:05;;;;;;;;;;;;;;;;;;;;;
2022/04/29 06:32:35;;;;;;;12.48;8.50;;;;;;;9.14;70.57;101905.69;6310051;22;20023;-72
2022/04/29 06:35:50;;;;;;;13.70;8.55;;;;;;;9.12;70.27;101853.19;6280082;22;20030;-74
2022/04/29 06:38:34;;;;;;;13.57;7.85;;;;;;;9.66;69.61;101866.41;6281464;22;20434;-74
2022/04/29 06:41:31;;;;;;;11.87;7.37;;;;;;;10.07;67.78;101871.22;6281403;22;20003;-73
2022/04/29 06:44:03;;;;;;;13.90;8.40;;;;;;;10.60;66.41;101891.66;6262052;22;20039;-73
2022/04/29 06:47:22;;;;;;;14.80;7.70;;;;;;;10.91;65.22;101891.69;6255593;22;20007;-72
2022/04/29 06:49:50;;;;;;;13.15;8.65;;;;;;;11.20;63.97;101902.81;6268071;22;20037;-74
2022/04/29 06:52:16;;;;;;;10.85;7.03;;;;;;;11.39;63.64;101911.78;6232208;22;20103;-71
2022/04/29 06:54:42;;;;;;;15.95;8.15;;;;;;;11.52;62.38;101906.94;6227386;22;20003;-73
2022/04/29 06:57:09;;;;;;;13.57;7.80;;;;;;;11.67;62.16;101905.66;6280306;22;20011;-74
2022/04/29 06:59:35;;;;;;;14.13;7.97;;;;;;;11.59;62.03;101895.84;6254667;22;20536;-72
2022/04/29 07:02:01;;;;;;;14.45;9.18;;;;;;;11.66;60.89;101899.31;6229645;22;20011;-75
2022/04/29 07:04:28;;;;;;;14.13;8.13;;;;;;;11.76;60.82;101912.44;6256113;22;20094;-74
2022/04/29 07:06:56;;;;;;;15.77;8.25;;;;;;;11.93;60.21;101915.34;6233778;22;20003;-75
2022/04/29 07:09:23;;;;;;;12.23;7.50;;;;;;;11.98;59.97;101906.41;6283474;22;20007;-73
2022/04/29 07:11:49;;;;;;;13.32;7.75;;;;;;;12.10;59.67;101936.56;6282155;22;20003;-75
2022/04/29 07:14:14;;;;;;;14.43;7.95;;;;;;;12.13;59.09;101925.09;6232849;22;20014;-73
2022/04/29 07:16:40;;;;;;;14.70;8.02;;;;;;;12.23;58.36;101926.16;6232611;22;20030;-74
2022/04/29 07:19:06;;;;;;;17.70;8.43;;;;;;;12.19;58.17;101913.16;6282028;22;20042;-74
2022/04/29 07:21:32;;;;;;;14.32;8.05;;;;;;;12.38;57.71;101925.66;6281193;22;20003;-74
2022/04/29 07:23:59;;;;;;;10.07;6.40;;;;;;;12.61;57.35;101918.44;6231840;22;20022;-73
2022/04/29 07:26:25;;;;;;;13.45;6.05;;;;;;;13.03;57.12;101922.84;6232044;22;20545;-74
2022/04/29 07:28:51;;;;;;;12.35;7.15;;;;;;;13.50;55.80;101943.75;6255786;22;20076;-73
2022/04/29 07:31:34;;;;;;;14.02;7.32;;;;;;;13.76;55.31;101936.75;6263073;22;20082;-75
2022/04/29 07:34:03;;;;;;;14.00;7.65;;;;;;;13.81;54.45;101933.25;6291224;22;20015;-78
2022/04/29 07:42:26;;;;;;;13.35;6.63;;;;;;;14.62;52.46;101896.97;6292699;22;20014;-76
2022/04/29 07:45:21;;;;;;;8.13;5.82;;;;;;;14.91;52.53;101902.22;6285409;22;20026;-73
2022/04/29 07:47:52;;;;;;;9.82;6.20;;;;;;;15.13;51.27;101897.50;6313890;22;20202;-73
2022/04/29 07:50:39;;;;;;;8.65;6.30;;;;;;;15.73;50.43;101930.56;6285960;22;20003;-74
2022/04/29 07:53:05;;;;;;;13.63;6.07;;;;;;;16.26;49.51;101949.16;6286937;22;20079;-76
2022/04/29 07:55:33;;;;;;;9.60;5.32;;;;;;;16.31;48.61;101935.34;6286221;22;20033;-76
2022/04/29 07:58:18;;;;;;;9.60;4.55;;;;;;;16.48;48.12;101958.09;6286040;22;20011;-76
2022/04/29 08:00:50;;;;;;;7.10;4.13;;;;;;;16.30;47.10;101917.16;6289435;22;20010;-76
2022/04/29 08:03:18;;;;;;;10.25;5.35;;;;;;;16.41;46.81;101946.44;6291091;22;20091;-78
2022/04/29 08:06:32;;;;;;;;;;;;;;;;;;;;;
2022/04/29 08:09:09;;;;;;;5.57;3.92;;;;;;;16.37;46.61;101946.16;6320465;22;19998;-79
2022/04/29 08:11:34;;;;;;;5.35;3.25;;;;;;;16.38;47.01;101909.19;6296289;22;20037;-77
2022/04/29 08:14:06;;;;;;;6.97;4.25;;;;;;;16.89;45.28;101951.94;6303540;22;20011;-77
2022/04/29 08:20:50;;;;;;;6.63;4.07;;;;;;;17.05;43.67;101972.16;6312931;22;20003;-77
2022/04/29 08:24:05;;;;;;;5.60;2.97;;;;;;;17.08;43.82;101977.13;6239486;22;20010;-77
2022/04/29 08:26:31;;;;;;;6.07;3.25;;;;;;;17.06;43.47;101954.47;6289695;22;20094;-76
2022/04/29 08:28:58;;;;;;;5.45;2.83;;;;;;;17.59;43.15;101955.06;6262585;22;20034;-76
2022/04/29 08:31:43;;;;;;;5.95;3.03;;;;;;;18.45;42.11;101966.31;6288135;22;20008;-75
2022/04/29 08:34:27;;;;;;;;;;;;;;;;;;;;;
2022/04/29 08:37:04;;;;;;;;;;;;;;;19.71;40.26;101978.13;6318979;22;20034;-76
2022/04/29 08:42:51;;;;;;;4.47;2.78;;;;;;;19.95;39.05;101960.72;6265917;22;20004;-77
2022/04/29 08:45:56;;;;;;;;;;;;;;;;;;;;;
2022/04/29 08:51:40;;;;;;;;;;;;;;;;;;;;;
2022/04/29 08:58:36;;;;;;;;;;;;;;;;;;;;;
2022/04/29 08:59:48;;;;;;;4.95;2.90;;;;;;;19.16;38.19;101913.63;6291101;22;20013;-77
2022/04/29 09:02:32;;;;;;;7.05;2.85;;;;;;;19.17;38.47;101938.31;6288552;22;20031;-76
2022/04/29 09:05:03;;;;;;;8.40;3.67;;;;;;;19.24;38.08;101910.22;6265072;22;20022;-76
2022/04/29 09:07:54;;;;;;;9.25;3.45;;;;;;;19.77;37.80;101950.31;6289590;22;20228;-75
2022/04/29 09:10:34;;;;;;;6.75;2.90;;;;;;;19.67;37.42;101952.06;6288657;22;20007;-78
2022/04/29 09:13:14;;;;;;;11.43;3.60;;;;;;;19.33;37.69;101954.81;6317488;22;20025;-74
2022/04/29 09:16:04;;;;;;;;;;;;;;;;;;;;;
2022/04/29 09:18:49;;;;;;;5.72;3.30;;;;;;;20.66;35.42;101952.75;6316782;22;20026;-75
2022/04/29 09:22:03;;;;;;;4.47;2.65;;;;;;;22.20;32.96;101938.34;6288785;22;20029;-76
2022/04/29 09:24:30;;;;;;;7.38;2.40;;;;;;;22.12;33.20;101959.38;6316572;22;20022;-75
2022/04/29 09:27:12;;;;;;;5.35;2.60;;;;;;;25.14;30.34;101964.50;6291339;22;20011;-77
2022/04/29 09:33:35;;;;;;;;;;;;;;;;;;;;;
2022/04/29 09:36:01;;;;;;;8.30;3.10;;;;;;;28.58;24.03;101950.41;6249468;23;20038;-76
2022/04/29 09:41:22;;;;;;;6.10;1.95;;;;;;;34.18;19.83;101978.47;6314718;22;20022;-75
2022/04/29 09:44:25;;;;;;;;;;;;;;;;;;;;;
2022/04/29 09:47:31;;;;;;;;;;;;;;;;;;;;;
2022/04/29 09:50:03;;;;;;;5.43;2.28;;;;;;;35.19;15.83;101967.78;6316000;22;20040;-76
2022/04/29 09:52:50;;;;;;;;;;;;;;;;;;;;;
2022/04/29 09:55:40;;;;;;;4.45;1.90;;;;;;;30.40;20.30;101969.25;6315253;22;20045;-76
2022/04/29 09:58:14;;;;;;;6.65;2.42;;;;;;;29.07;20.56;101936.28;6286996;22;20004;-76
2022/04/29 10:00:53;;;;;;;;;;;;;;;;;;;;;
2022/04/29 10:03:21;;;;;;;3.05;1.80;;;;;;;28.23;21.37;101959.31;6290352;22;20350;-77
2022/04/29 10:05:55;;;;;;;8.02;2.28;;;;;;;27.44;21.57;101918.03;6286980;22;20011;-76
2022/04/29 10:08:25;;;;;;;3.40;1.45;;;;;;;26.71;22.91;101946.50;6287649;22;20034;-75
2022/04/29 10:11:05;;;;;;;5.57;2.85;;;;;;;25.73;22.82;101947.19;6263212;22;20076;-76
2022/04/29 10:13:37;;;;;;;3.78;2.13;;;;;;;25.30;23.80;101925.66;6286226;22;20483;-76
2022/04/29 10:16:06;;;;;;;4.07;2.30;;;;;;;25.14;23.52;101954.13;6261605;22;20406;-76
2022/04/29 10:21:50;;;;;;;3.95;2.05;;;;;;;24.08;25.13;101929.84;6291764;22;20017;-76
2022/04/29 10:24:46;;;;;;;14.57;3.63;;;;;;;25.97;23.70;101901.78;6315486;22;20003;-76
2022/04/29 10:27:35;;;;;;;6.57;2.30;;;;;;;26.55;23.18;101924.63;6312567;22;20007;-76
2022/04/29 10:30:20;;;;;;;;;;;;;;;;;;;;;
2022/04/29 10:33:01;;;;;;;3.40;2.35;;;;;;;25.74;23.26;101948.84;6312569;22;20458;-76
2022/04/29 10:35:46;;;;;;;5.97;1.80;;;;;;;25.58;23.04;101934.53;6309419;22;20003;-76
2022/04/29 10:38:27;;;;;;;3.78;1.70;;;;;;;25.59;23.83;101925.78;6286373;22;20033;-75
2022/04/29 10:41:24;;;;;;;7.82;2.97;;;;;;;25.02;23.93;101935.19;6315418;22;20010;-77
2022/04/29 10:43:50;;;;;;;6.82;2.75;;;;;;;24.39;24.87;101920.59;6315802;22;20078;-77
2022/04/29 10:46:31;;;;;;;7.32;2.17;;;;;;;25.29;24.40;101926.78;6316549;22;20004;-76
2022/04/29 10:48:57;;;;;;;4.25;1.90;;;;;;;29.70;20.40;101928.38;6286022;22;20018;-77
2022/04/29 10:51:25;;;;;;;7.35;2.42;;;;;;;30.46;18.79;101925.50;6315205;22;20057;-76
2022/04/29 10:53:55;;;;;;;3.42;1.60;;;;;;;31.89;18.52;101914.72;6287438;22;19999;-77
2022/04/29 10:56:26;;;;;;;4.13;1.70;;;;;;;37.33;15.38;101941.75;6315548;22;20027;-74
2022/04/29 10:59:15;;;;;;;2.65;1.42;;;;;;;39.92;12.96;101918.09;6286606;22;20031;-77
2022/04/29 11:01:46;;;;;;;1.60;1.10;;;;;;;39.03;13.36;101923.88;6315380;22;20491;-76
2022/04/29 11:04:15;;;;;;;2.88;1.45;;;;;;;38.01;13.75;101934.78;6313187;22;20061;-77
2022/04/29 11:06:51;;;;;;;6.15;1.88;;;;;;;35.02;14.80;101917.38;6316013;22;20022;-76
2022/04/29 11:09:51;;;;;;;3.15;1.80;;;;;;;32.36;16.11;101919.19;6316756;22;20006;-78
2022/04/29 11:12:34;;;;;;;4.22;2.30;;;;;;;30.62;16.86;101923.47;6314986;22;20739;-76
2022/04/29 11:15:19;;;;;;;4.38;1.45;;;;;;;32.75;17.19;101920.97;6288234;22;20294;-76
2022/04/29 11:17:54;;;;;;;;;;;;;;;;;;;;;
2022/04/29 11:20:34;;;;;;;5.20;1.60;;;;;;;43.86;9.71;101915.59;6315781;22;20026;-77
2022/04/29 11:26:11;;;;;;;12.05;3.15;;;;;;;38.14;11.51;101922.81;6316464;22;20322;-77
2022/04/29 11:28:37;;;;;;;7.05;2.30;;;;;;;41.53;10.30;101903.81;6315848;22;20056;-74
2022/04/29 11:31:33;;;;;;;8.43;2.50;;;;;;;39.55;9.78;101924.84;6288257;22;20029;-77
2022/04/29 11:34:26;;;;;;;5.05;2.20;;;;;;;35.36;12.39;101925.66;6280333;22;20503;-76
2022/04/29 11:36:56;;;;;;;4.68;2.75;;;;;;;32.67;14.50;101877.59;6312437;22;20004;-75
2022/04/29 11:39:22;;;;;;;5.95;2.10;;;;;;;30.96;15.81;101898.38;6286610;22;20065;-77
2022/04/29 11:41:59;;;;;;;3.40;2.05;;;;;;;33.31;14.93;101886.06;6288985;22;20007;-77
2022/04/29 11:44:50;;;;;;;3.75;1.90;;;;;;;38.50;12.38;101925.34;6263628;22;20027;-77
2022/04/29 11:47:45;;;;;;;7.47;2.10;;;;;;;40.46;10.90;101920.03;6290320;22;20437;-75
2022/04/29 11:50:42;;;;;;;3.97;1.48;;;;;;;45.02;8.28;101926.63;6279703;22;20090;-76
2022/04/29 11:53:19;;;;;;;2.30;1.40;;;;;;;47.11;7.89;101903.13;6261721;22;20038;-76
2022/04/29 11:56:11;;;;;;;7.93;1.73;;;;;;;48.28;6.70;101888.06;6287506;22;20082;-77
2022/04/29 11:58:43;;;;;;;3.55;1.42;;;;;;;45.05;7.15;101885.31;6289583;22;20587;-76
2022/04/29 12:01:19;;;;;;;5.60;1.92;;;;;;;40.14;9.16;101875.59;6287638;22;20025;-77
2022/04/29 12:04:07;;;;;;;5.28;1.83;;;;;;;36.02;11.57;101847.69;6285008;22;20073;-72
2022/04/29 12:07:03;;;;;;;2.28;1.50;;;;;;;36.51;12.40;101874.47;6285668;22;19991;-73
2022/04/29 12:09:41;;;;;;;2.58;1.50;;;;;;;43.15;9.19;101879.25;6278496;22;20806;-73
2022/04/29 19:54:59;;;;;;;1.27;1.15;;;;;;;8.02;50.31;101903.19;6318716;22;20041;-73
2022/04/29 22:06:01;;;;;;;4.53;2.92;;;;;;;5.88;57.84;101887.19;6254605;22;20346;-70
2022/04/29 22:08:56;;;;;;;4.78;2.80;;;;;;;6.01;57.74;101907.34;6276096;22;20030;-72
2022/04/29 22:11:22;;;;;;;;;;;;;;;6.00;57.74;101914.69;6286673;22;20421;-70
2022/04/29 22:14:02;;;;;;;4.07;2.67;;;;;;;5.95;57.22;101919.81;6287665;22;19964;-69
2022/04/29 22:17:13;;;;;;;3.72;2.92;;;;;;;5.84;57.71;101915.78;6240092;22;20003;-70
2022/04/29 22:19:56;;;;;;;7.40;4.28;;;;;;;5.76;58.31;101905.91;6285978;22;20013;-69
2022/04/29 22:22:40;;;;;;;4.30;3.53;;;;;;;5.68;58.37;101891.63;6314999;22;20062;-70
2022/04/29 22:25:11;;;;;;;4.35;3.65;;;;;;;5.68;59.08;101897.91;6314691;22;20086;-69
2022/04/29 22:27:43;;;;;;;6.35;3.50;;;;;;;5.60;58.95;101889.91;6310293;22;20002;-72
2022/04/29 22:30:19;;;;;;;5.10;3.90;;;;;;;5.51;59.07;101882.97;6307959;22;20087;-70
2022/04/29 22:32:44;;;;;;;6.10;3.28;;;;;;;5.48;59.41;101880.66;6308091;22;20003;-70
2022/04/29 22:35:15;;;;;;;3.80;3.33;;;;;;;5.60;59.98;101906.19;6279673;22;20079;-69
2022/04/29 22:37:45;;;;;;;4.40;3.22;;;;;;;5.44;59.61;101890.22;6284801;22;20023;-73
2022/04/29 22:43:22;;;;;;;3.80;2.72;;;;;;;5.49;59.71;101909.44;6242917;23;20095;-69
2022/04/29 22:45:49;;;;;;;3.70;2.97;;;;;;;5.41;59.89;101908.53;6304260;22;20035;-69
2022/04/29 22:48:17;;;;;;;7.63;3.10;;;;;;;5.24;60.09;101891.72;6282070;22;20057;-69
2022/04/29 22:50:44;;;;;;;4.63;3.05;;;;;;;5.21;60.53;101885.81;6313877;22;19998;-69
2022/04/29 22:53:17;;;;;;;3.47;2.90;;;;;;;5.27;60.24;101893.22;6309695;22;20045;-70
2022/04/29 22:55:45;;;;;;;2.30;1.88;;;;;;;5.22;60.21;101903.78;6283838;22;20812;-71
2022/04/29 22:58:23;;;;;;;;;;;;;;;;;;;;;
2022/04/29 23:00:52;;;;;;;4.22;2.20;;;;;;;5.02;60.55;101885.47;6310944;22;20082;-69
2022/04/29 23:03:26;;;;;;;3.63;2.72;;;;;;;5.07;60.27;101896.53;6311852;22;20056;-70
2022/04/29 23:05:52;;;;;;;4.20;2.53;;;;;;;5.05;61.27;101887.78;6284906;22;20311;-70
2022/04/29 23:08:18;;;;;;;3.65;2.20;;;;;;;4.94;60.92;101869.31;6282697;22;20251;-68
2022/04/29 23:10:44;;;;;;;2.15;1.80;;;;;;;4.91;60.89;101875.13;6309948;22;20003;-70
2022/04/29 23:13:30;;;;;;;2.65;2.45;;;;;;;5.07;60.97;101895.72;6310878;22;20011;-70
2022/04/29 23:16:41;;;;;;;6.25;3.08;;;;;;;4.95;61.16;101881.84;6315565;22;20003;-71
2022/04/29 23:19:22;;;;;;;2.80;2.47;;;;;;;4.95;61.20;101886.41;6307460;22;20098;-70
2022/04/29 23:22:27;;;;;;;;;;;;;;;;;;;;;
2022/04/29 23:24:55;;;;;;;2.92;2.33;;;;;;;4.76;61.85;101877.88;6314317;22;20017;-69
2022/04/29 23:27:31;;;;;;;;;;;;;;;;;;;;;
2022/04/29 23:30:01;;;;;;;4.28;3.22;;;;;;;4.68;62.24;101876.13;6312775;22;20034;-72
2022/04/29 23:32:27;;;;;;;5.25;3.08;;;;;;;4.76;61.99;101896.00;6285001;22;20022;-70
2022/04/29 23:35:01;;;;;;;3.00;2.67;;;;;;;4.61;62.21;101874.38;6285696;22;20030;-69
2022/04/29 23:37:29;;;;;;;3.30;2.38;;;;;;;4.75;62.53;101895.16;6283401;22;20029;-69
2022/04/29 23:40:04;;;;;;;2.88;2.58;;;;;;;4.56;62.38;101872.22;6314481;22;20436;-69
2022/04/29 23:42:47;;;;;;;4.63;2.97;;;;;;;4.54;62.62;101872.44;6305441;22;20018;-69
2022/04/29 23:49:05;;;;;;;8.88;3.20;;;;;;;4.62;62.14;101876.88;6274507;22;20003;-70
2022/04/29 23:52:17;;;;;;;6.72;3.63;;;;;;;4.55;62.82;101874.09;6307907;22;20363;-69
2022/04/29 23:54:48;;;;;;;5.47;3.50;;;;;;;4.60;63.07;101889.78;6239508;22;20011;-69
